sensor_id;sensor_type;location;lat;lon;timestamp;P1;durP1;ratioP1;P2;durP2;ratioP2
20251;SDS011;10284;58.364;15.550;2024-02-14T00:00:09;12.93;;;4.18;;
20251;SDS011;10284;58.364;15.550;2024-02-14T00:02:45;11.98;;;4.40;;
20251;SDS011;10284;58.364;15.550;2024-02-14T00:05:11;10.45;;;4.20;;
20251;SDS011;10284;58.364;15.550;2024-02-14T00:07:37;12.75;;;4.07;;
20251;SDS011;10284;58.364;15.550;2024-02-14T00:10:03;10.13;;;3.55;;
20251;SDS011;10284;58.364;15.550;2024-02-14T00:12:30;8.57;;;3.75;;
20251;SDS011;10284;58.364;15.550;2024-02-14T00:14:56;11.10;;;3.65;;
20251;SDS011;10284;58.364;15.550;2024-02-14T00:17:22;10.63;;;3.33;;
20251;SDS011;10284;58.364;15.550;2024-02-14T00:19:48;7.22;;;3.70;;
20251;SDS011;10284;58.364;15.550;2024-02-14T00:22:14;17.23;;;3.53;;
20251;SDS011;10284;58.364;15.550;2024-02-14T00:24:39;11.07;;;2.90;;
20251;SDS011;10284;58.364;15.550;2024-02-14T00:27:05;20.52;;;4.00;;
20251;SDS011;10284;58.364;15.550;2024-02-14T00:29:31;10.65;;;3.47;;
20251;SDS011;10284;58.364;15.550;2024-02-14T00:31:59;8.20;;;3.20;;
20251;SDS011;10284;58.364;15.550;2024-02-14T00:34:24;12.00;;;3.65;;
20251;SDS011;10284;58.364;15.550;2024-02-14T00:36:50;9.77;;;3.40;;
20251;SDS011;10284;58.364;15.550;2024-02-14T00:39:15;9.00;;;3.60;;
20251;SDS011;10284;58.364;15.550;2024-02-14T00:41:41;15.13;;;3.42;;
20251;SDS011;10284;58.364;15.550;2024-02-14T00:44:06;19.80;;;3.80;;
20251;SDS011;10284;58.364;15.550;2024-02-14T00:46:31;11.93;;;3.22;;
20251;SDS011;10284;58.364;15.550;2024-02-14T00:48:57;13.88;;;3.88;;
20251;SDS011;10284;58.364;15.550;2024-02-14T00:51:22;10.70;;;3.58;;
20251;SDS011;10284;58.364;15.550;2024-02-14T00:53:48;13.32;;;3.83;;
20251;SDS011;10284;58.364;15.550;2024-02-14T00:56:13;10.43;;;3.33;;
20251;SDS011;10284;58.364;15.550;2024-02-14T00:58:38;13.23;;;3.33;;
20251;SDS011;10284;58.364;15.550;2024-02-14T01:01:04;16.73;;;3.95;;
20251;SDS011;10284;58.364;15.550;2024-02-14T01:03:30;11.88;;;3.50;;
20251;SDS011;10284;58.364;15.550;2024-02-14T01:05:55;13.93;;;3.70;;
20251;SDS011;10284;58.364;15.550;2024-02-14T01:08:20;11.90;;;3.85;;
20251;SDS011;10284;58.364;15.550;2024-02-14T01:10:46;16.98;;;4.03;;
20251;SDS011;10284;58.364;15.550;2024-02-14T01:13:12;10.38;;;3.15;;
20251;SDS011;10284;58.364;15.550;2024-02-14T01:15:37;8.93;;;3.70;;
20251;SDS011;10284;58.364;15.550;2024-02-14T01:18:03;21.13;;;3.90;;
20251;SDS011;10284;58.364;15.550;2024-02-14T01:20:28;16.30;;;3.47;;
20251;SDS011;10284;58.364;15.550;2024-02-14T01:22:54;15.77;;;2.92;;
20251;SDS011;10284;58.364;15.550;2024-02-14T01:25:19;16.98;;;3.63;;
20251;SDS011;10284;58.364;15.550;2024-02-14T01:27:45;26.63;;;4.20;;
20251;SDS011;10284;58.364;15.550;2024-02-14T01:30:10;14.02;;;3.38;;
20251;SDS011;10284;58.364;15.550;2024-02-14T01:32:36;16.92;;;3.15;;
20251;SDS011;10284;58.364;15.550;2024-02-14T01:35:02;16.08;;;3.58;;
20251;SDS011;10284;58.364;15.550;2024-02-14T01:37:29;10.63;;;3.10;;
20251;SDS011;10284;58.364;15.550;2024-02-14T01:39:55;16.50;;;3.65;;
20251;SDS011;10284;58.364;15.550;2024-02-14T01:42:20;24.02;;;3.67;;
20251;SDS011;10284;58.364;15.550;2024-02-14T01:44:45;12.35;;;3.05;;
20251;SDS011;10284;58.364;15.550;2024-02-14T01:47:11;17.25;;;3.25;;
20251;SDS011;10284;58.364;15.550;2024-02-14T01:49:37;16.08;;;3.00;;
20251;SDS011;10284;58.364;15.550;2024-02-14T01:52:03;14.43;;;3.45;;
20251;SDS011;10284;58.364;15.550;2024-02-14T01:54:29;12.70;;;3.10;;
20251;SDS011;10284;58.364;15.550;2024-02-14T01:56:56;25.15;;;3.38;;
20251;SDS011;10284;58.364;15.550;2024-02-14T01:59:21;14.93;;;3.20;;
20251;SDS011;10284;58.364;15.550;2024-02-14T02:01:47;9.80;;;3.10;;
20251;SDS011;10284;58.364;15.550;2024-02-14T02:04:12;18.48;;;3.42;;
20251;SDS011;10284;58.364;15.550;2024-02-14T02:06:38;11.77;;;3.10;;
20251;SDS011;10284;58.364;15.550;2024-02-14T02:09:05;12.40;;;3.47;;
20251;SDS011;10284;58.364;15.550;2024-02-14T02:11:41;18.67;;;3.47;;
20251;SDS011;10284;58.364;15.550;2024-02-14T02:14:08;13.98;;;2.92;;
20251;SDS011;10284;58.364;15.550;2024-02-14T02:16:33;19.13;;;3.58;;
20251;SDS011;10284;58.364;15.550;2024-02-14T02:18:58;23.35;;;3.67;;
20251;SDS011;10284;58.364;15.550;2024-02-14T02:21:24;11.85;;;3.53;;
20251;SDS011;10284;58.364;15.550;2024-02-14T02:23:49;17.27;;;3.28;;
20251;SDS011;10284;58.364;15.550;2024-02-14T02:26:15;22.58;;;3.40;;
20251;SDS011;10284;58.364;15.550;2024-02-14T02:28:40;20.60;;;3.55;;
20251;SDS011;10284;58.364;15.550;2024-02-14T02:31:07;24.73;;;3.40;;
20251;SDS011;10284;58.364;15.550;2024-02-14T02:33:34;18.75;;;2.92;;
20251;SDS011;10284;58.364;15.550;2024-02-14T02:35:59;13.48;;;2.80;;
20251;SDS011;10284;58.364;15.550;2024-02-14T02:38:25;17.73;;;3.08;;
20251;SDS011;10284;58.364;15.550;2024-02-14T02:40:50;19.98;;;3.85;;
20251;SDS011;10284;58.364;15.550;2024-02-14T02:43:15;23.05;;;3.47;;
20251;SDS011;10284;58.364;15.550;2024-02-14T02:45:41;19.63;;;3.08;;
20251;SDS011;10284;58.364;15.550;2024-02-14T02:48:07;14.75;;;2.88;;
20251;SDS011;10284;58.364;15.550;2024-02-14T02:50:32;26.23;;;3.20;;
20251;SDS011;10284;58.364;15.550;2024-02-14T02:52:58;20.35;;;3.47;;
20251;SDS011;10284;58.364;15.550;2024-02-14T02:55:24;22.50;;;3.55;;
20251;SDS011;10284;58.364;15.550;2024-02-14T02:57:51;16.25;;;3.55;;
20251;SDS011;10284;58.364;15.550;2024-02-14T03:00:17;24.98;;;3.38;;
20251;SDS011;10284;58.364;15.550;2024-02-14T03:02:46;28.05;;;3.05;;
20251;SDS011;10284;58.364;15.550;2024-02-14T03:05:12;23.48;;;3.75;;
20251;SDS011;10284;58.364;15.550;2024-02-14T03:07:46;31.23;;;3.58;;
20251;SDS011;10284;58.364;15.550;2024-02-14T03:10:13;22.05;;;3.25;;
20251;SDS011;10284;58.364;15.550;2024-02-14T03:12:39;13.98;;;3.05;;
20251;SDS011;10284;58.364;15.550;2024-02-14T03:15:05;28.65;;;3.80;;
20251;SDS011;10284;58.364;15.550;2024-02-14T03:17:31;23.38;;;3.50;;
20251;SDS011;10284;58.364;15.550;2024-02-14T03:19:56;16.77;;;3.50;;
20251;SDS011;10284;58.364;15.550;2024-02-14T03:22:22;24.45;;;3.65;;
20251;SDS011;10284;58.364;15.550;2024-02-14T03:24:47;17.98;;;3.47;;
20251;SDS011;10284;58.364;15.550;2024-02-14T03:27:13;25.83;;;3.78;;
20251;SDS011;10284;58.364;15.550;2024-02-14T03:29:38;18.92;;;3.35;;
20251;SDS011;10284;58.364;15.550;2024-02-14T03:32:04;15.68;;;3.33;;
20251;SDS011;10284;58.364;15.550;2024-02-14T03:34:31;21.00;;;3.97;;
20251;SDS011;10284;58.364;15.550;2024-02-14T03:36:58;12.43;;;2.80;;
20251;SDS011;10284;58.364;15.550;2024-02-14T03:39:24;18.08;;;3.20;;
20251;SDS011;10284;58.364;15.550;2024-02-14T03:41:49;25.25;;;3.20;;
20251;SDS011;10284;58.364;15.550;2024-02-14T03:44:15;18.73;;;3.53;;
20251;SDS011;10284;58.364;15.550;2024-02-14T03:46:40;15.50;;;3.35;;
20251;SDS011;10284;58.364;15.550;2024-02-14T03:49:06;16.35;;;3.50;;
20251;SDS011;10284;58.364;15.550;2024-02-14T03:51:31;14.48;;;3.45;;
20251;SDS011;10284;58.364;15.550;2024-02-14T03:53:56;8.73;;;2.38;;
20251;SDS011;10284;58.364;15.550;2024-02-14T03:56:22;15.35;;;2.28;;
20251;SDS011;10284;58.364;15.550;2024-02-14T03:58:48;12.90;;;2.75;;
20251;SDS011;10284;58.364;15.550;2024-02-14T04:01:14;10.35;;;2.30;;
20251;SDS011;10284;58.364;15.550;2024-02-14T04:03:40;9.25;;;1.95;;
20251;SDS011;10284;58.364;15.550;2024-02-14T04:06:05;12.43;;;2.20;;
20251;SDS011;10284;58.364;15.550;2024-02-14T04:08:31;17.90;;;2.75;;
20251;SDS011;10284;58.364;15.550;2024-02-14T04:10:58;13.93;;;2.83;;
20251;SDS011;10284;58.364;15.550;2024-02-14T04:13:24;15.88;;;2.85;;
20251;SDS011;10284;58.364;15.550;2024-02-14T04:15:49;16.45;;;2.78;;
20251;SDS011;10284;58.364;15.550;2024-02-14T04:18:15;10.02;;;2.10;;
20251;SDS011;10284;58.364;15.550;2024-02-14T04:20:42;11.60;;;2.50;;
20251;SDS011;10284;58.364;15.550;2024-02-14T04:23:08;17.00;;;2.45;;
20251;SDS011;10284;58.364;15.550;2024-02-14T04:25:35;17.73;;;2.38;;
20251;SDS011;10284;58.364;15.550;2024-02-14T04:28:02;9.73;;;2.40;;
20251;SDS011;10284;58.364;15.550;2024-02-14T04:30:28;11.43;;;2.58;;
20251;SDS011;10284;58.364;15.550;2024-02-14T04:32:53;15.63;;;2.33;;
20251;SDS011;10284;58.364;15.550;2024-02-14T04:35:21;10.77;;;2.25;;
20251;SDS011;10284;58.364;15.550;2024-02-14T04:37:47;13.82;;;2.20;;
20251;SDS011;10284;58.364;15.550;2024-02-14T04:40:14;10.25;;;2.55;;
20251;SDS011;10284;58.364;15.550;2024-02-14T04:42:40;12.98;;;2.72;;
20251;SDS011;10284;58.364;15.550;2024-02-14T04:45:05;14.75;;;2.58;;
20251;SDS011;10284;58.364;15.550;2024-02-14T04:47:32;15.68;;;2.63;;
20251;SDS011;10284;58.364;15.550;2024-02-14T04:49:57;17.05;;;2.88;;
20251;SDS011;10284;58.364;15.550;2024-02-14T04:52:23;15.48;;;2.92;;
20251;SDS011;10284;58.364;15.550;2024-02-14T04:54:48;17.27;;;2.88;;
20251;SDS011;10284;58.364;15.550;2024-02-14T04:57:14;14.60;;;2.58;;
20251;SDS011;10284;58.364;15.550;2024-02-14T04:59:40;10.80;;;2.28;;
20251;SDS011;10284;58.364;15.550;2024-02-14T05:02:05;12.38;;;2.40;;
20251;SDS011;10284;58.364;15.550;2024-02-14T05:04:32;14.25;;;2.60;;
20251;SDS011;10284;58.364;15.550;2024-02-14T05:07:00;13.50;;;2.47;;
20251;SDS011;10284;58.364;15.550;2024-02-14T05:09:25;13.35;;;3.20;;
20251;SDS011;10284;58.364;15.550;2024-02-14T05:11:51;14.23;;;2.42;;
20251;SDS011;10284;58.364;15.550;2024-02-14T05:14:16;15.55;;;2.50;;
20251;SDS011;10284;58.364;15.550;2024-02-14T05:16:41;15.73;;;3.30;;
20251;SDS011;10284;58.364;15.550;2024-02-14T05:19:07;19.25;;;2.90;;
20251;SDS011;10284;58.364;15.550;2024-02-14T05:21:32;13.52;;;2.30;;
20251;SDS011;10284;58.364;15.550;2024-02-14T05:23:57;11.70;;;2.70;;
20251;SDS011;10284;58.364;15.550;2024-02-14T05:26:23;9.80;;;2.40;;
20251;SDS011;10284;58.364;15.550;2024-02-14T05:28:48;12.23;;;3.00;;
20251;SDS011;10284;58.364;15.550;2024-02-14T05:31:14;8.52;;;2.05;;
20251;SDS011;10284;58.364;15.550;2024-02-14T05:33:40;13.88;;;2.58;;
20251;SDS011;10284;58.364;15.550;2024-02-14T05:36:05;16.95;;;3.25;;
20251;SDS011;10284;58.364;15.550;2024-02-14T05:38:31;18.23;;;2.97;;
20251;SDS011;10284;58.364;15.550;2024-02-14T05:40:58;11.98;;;3.25;;
20251;SDS011;10284;58.364;15.550;2024-02-14T05:43:24;16.27;;;2.63;;
20251;SDS011;10284;58.364;15.550;2024-02-14T05:45:49;19.33;;;3.42;;
20251;SDS011;10284;58.364;15.550;2024-02-14T05:48:14;13.98;;;2.78;;
20251;SDS011;10284;58.364;15.550;2024-02-14T05:50:40;14.65;;;3.28;;
20251;SDS011;10284;58.364;15.550;2024-02-14T05:53:05;21.80;;;3.17;;
20251;SDS011;10284;58.364;15.550;2024-02-14T05:55:31;15.65;;;4.35;;
20251;SDS011;10284;58.364;15.550;2024-02-14T05:57:57;18.02;;;3.35;;
20251;SDS011;10284;58.364;15.550;2024-02-14T06:00:24;18.23;;;3.90;;
20251;SDS011;10284;58.364;15.550;2024-02-14T06:02:49;18.40;;;4.10;;
20251;SDS011;10284;58.364;15.550;2024-02-14T06:05:15;20.17;;;3.75;;
20251;SDS011;10284;58.364;15.550;2024-02-14T06:07:41;13.63;;;3.60;;
20251;SDS011;10284;58.364;15.550;2024-02-14T06:10:07;21.95;;;4.15;;
20251;SDS011;10284;58.364;15.550;2024-02-14T06:12:33;24.63;;;4.07;;
20251;SDS011;10284;58.364;15.550;2024-02-14T06:14:59;17.52;;;4.40;;
20251;SDS011;10284;58.364;15.550;2024-02-14T06:17:25;12.30;;;3.83;;
20251;SDS011;10284;58.364;15.550;2024-02-14T06:19:51;17.63;;;3.05;;
20251;SDS011;10284;58.364;15.550;2024-02-14T06:22:17;13.27;;;3.35;;
20251;SDS011;10284;58.364;15.550;2024-02-14T06:24:42;15.35;;;3.80;;
20251;SDS011;10284;58.364;15.550;2024-02-14T06:27:08;12.48;;;3.80;;
20251;SDS011;10284;58.364;15.550;2024-02-14T06:29:33;16.08;;;3.88;;
20251;SDS011;10284;58.364;15.550;2024-02-14T06:31:58;15.07;;;3.90;;
20251;SDS011;10284;58.364;15.550;2024-02-14T06:34:24;14.93;;;4.53;;
20251;SDS011;10284;58.364;15.550;2024-02-14T06:36:51;14.75;;;3.72;;
20251;SDS011;10284;58.364;15.550;2024-02-14T06:39:16;18.38;;;4.28;;
20251;SDS011;10284;58.364;15.550;2024-02-14T06:41:42;27.75;;;4.30;;
20251;SDS011;10284;58.364;15.550;2024-02-14T06:44:08;10.93;;;4.03;;
20251;SDS011;10284;58.364;15.550;2024-02-14T06:46:34;16.83;;;3.55;;
20251;SDS011;10284;58.364;15.550;2024-02-14T06:49:02;7.93;;;2.92;;
20251;SDS011;10284;58.364;15.550;2024-02-14T06:51:27;12.48;;;3.13;;
20251;SDS011;10284;58.364;15.550;2024-02-14T06:53:53;16.65;;;3.60;;
20251;SDS011;10284;58.364;15.550;2024-02-14T06:56:18;16.30;;;3.10;;
20251;SDS011;10284;58.364;15.550;2024-02-14T06:58:44;12.15;;;2.85;;
20251;SDS011;10284;58.364;15.550;2024-02-14T07:01:09;9.23;;;3.08;;
20251;SDS011;10284;58.364;15.550;2024-02-14T07:03:37;11.75;;;3.47;;
20251;SDS011;10284;58.364;15.550;2024-02-14T07:06:02;14.23;;;3.30;;
20251;SDS011;10284;58.364;15.550;2024-02-14T07:08:28;15.30;;;3.17;;
20251;SDS011;10284;58.364;15.550;2024-02-14T07:10:54;20.73;;;2.75;;
20251;SDS011;10284;58.364;15.550;2024-02-14T07:13:20;17.00;;;3.85;;
20251;SDS011;10284;58.364;15.550;2024-02-14T07:15:45;10.00;;;3.10;;
20251;SDS011;10284;58.364;15.550;2024-02-14T07:18:10;12.02;;;3.55;;
20251;SDS011;10284;58.364;15.550;2024-02-14T07:20:36;13.10;;;3.00;;
20251;SDS011;10284;58.364;15.550;2024-02-14T07:23:01;12.43;;;3.00;;
20251;SDS011;10284;58.364;15.550;2024-02-14T07:25:27;10.30;;;3.35;;
20251;SDS011;10284;58.364;15.550;2024-02-14T07:27:52;9.35;;;2.58;;
20251;SDS011;10284;58.364;15.550;2024-02-14T07:30:17;13.45;;;3.42;;
20251;SDS011;10284;58.364;15.550;2024-02-14T07:32:43;16.05;;;3.20;;
20251;SDS011;10284;58.364;15.550;2024-02-14T07:35:09;7.15;;;2.95;;
20251;SDS011;10284;58.364;15.550;2024-02-14T07:37:35;10.35;;;2.75;;
20251;SDS011;10284;58.364;15.550;2024-02-14T07:40:00;12.85;;;3.58;;
20251;SDS011;10284;58.364;15.550;2024-02-14T07:42:25;6.85;;;3.22;;
20251;SDS011;10284;58.364;15.550;2024-02-14T07:44:51;8.43;;;3.47;;
20251;SDS011;10284;58.364;15.550;2024-02-14T07:47:16;8.90;;;3.13;;
20251;SDS011;10284;58.364;15.550;2024-02-14T07:49:41;10.60;;;3.20;;
20251;SDS011;10284;58.364;15.550;2024-02-14T07:52:07;10.55;;;3.35;;
20251;SDS011;10284;58.364;15.550;2024-02-14T07:54:32;8.65;;;3.60;;
20251;SDS011;10284;58.364;15.550;2024-02-14T07:56:58;15.07;;;3.50;;
20251;SDS011;10284;58.364;15.550;2024-02-14T07:59:23;13.45;;;3.90;;
20251;SDS011;10284;58.364;15.550;2024-02-14T08:01:48;12.38;;;3.40;;
20251;SDS011;10284;58.364;15.550;2024-02-14T08:04:14;7.88;;;2.92;;
20251;SDS011;10284;58.364;15.550;2024-02-14T08:06:40;6.85;;;3.50;;
20251;SDS011;10284;58.364;15.550;2024-02-14T08:09:06;13.88;;;3.15;;
20251;SDS011;10284;58.364;15.550;2024-02-14T08:11:34;8.75;;;3.25;;
20251;SDS011;10284;58.364;15.550;2024-02-14T08:14:00;7.10;;;2.75;;
20251;SDS011;10284;58.364;15.550;2024-02-14T08:16:26;7.72;;;2.90;;
20251;SDS011;10284;58.364;15.550;2024-02-14T08:18:51;10.38;;;2.88;;
20251;SDS011;10284;58.364;15.550;2024-02-14T08:21:23;11.27;;;2.55;;
20251;SDS011;10284;58.364;15.550;2024-02-14T08:23:49;11.18;;;2.95;;
20251;SDS011;10284;58.364;15.550;2024-02-14T08:26:15;10.05;;;3.25;;
20251;SDS011;10284;58.364;15.550;2024-02-14T08:28:41;9.18;;;3.25;;
20251;SDS011;10284;58.364;15.550;2024-02-14T08:31:10;10.85;;;3.50;;
20251;SDS011;10284;58.364;15.550;2024-02-14T08:33:36;9.32;;;2.92;;
20251;SDS011;10284;58.364;15.550;2024-02-14T08:36:02;10.15;;;2.65;;
20251;SDS011;10284;58.364;15.550;2024-02-14T08:38:32;8.63;;;3.00;;
20251;SDS011;10284;58.364;15.550;2024-02-14T08:41:01;10.18;;;3.03;;
20251;SDS011;10284;58.364;15.550;2024-02-14T08:43:29;10.98;;;3.40;;
20251;SDS011;10284;58.364;15.550;2024-02-14T08:45:55;7.25;;;3.20;;
20251;SDS011;10284;58.364;15.550;2024-02-14T08:48:21;8.60;;;3.05;;
20251;SDS011;10284;58.364;15.550;2024-02-14T08:50:47;11.65;;;3.55;;
20251;SDS011;10284;58.364;15.550;2024-02-14T08:53:13;10.80;;;3.28;;
20251;SDS011;10284;58.364;15.550;2024-02-14T08:55:41;11.02;;;3.30;;
20251;SDS011;10284;58.364;15.550;2024-02-14T08:58:06;8.60;;;3.00;;
20251;SDS011;10284;58.364;15.550;2024-02-14T09:00:34;7.28;;;3.72;;
20251;SDS011;10284;58.364;15.550;2024-02-14T09:03:00;6.63;;;3.50;;
20251;SDS011;10284;58.364;15.550;2024-02-14T09:05:26;9.18;;;3.22;;
20251;SDS011;10284;58.364;15.550;2024-02-14T09:07:53;7.25;;;3.13;;
20251;SDS011;10284;58.364;15.550;2024-02-14T09:10:18;7.85;;;3.00;;
20251;SDS011;10284;58.364;15.550;2024-02-14T09:12:44;6.03;;;3.05;;
20251;SDS011;10284;58.364;15.550;2024-02-14T09:15:09;6.90;;;3.20;;
20251;SDS011;10284;58.364;15.550;2024-02-14T09:17:36;10.55;;;3.10;;
20251;SDS011;10284;58.364;15.550;2024-02-14T09:20:03;9.27;;;3.28;;
20251;SDS011;10284;58.364;15.550;2024-02-14T09:22:31;7.90;;;3.70;;
20251;SDS011;10284;58.364;15.550;2024-02-14T09:24:56;6.78;;;2.70;;
20251;SDS011;10284;58.364;15.550;2024-02-14T09:27:22;7.38;;;3.20;;
20251;SDS011;10284;58.364;15.550;2024-02-14T09:29:48;8.02;;;2.97;;
20251;SDS011;10284;58.364;15.550;2024-02-14T09:32:13;11.13;;;3.60;;
20251;SDS011;10284;58.364;15.550;2024-02-14T09:34:39;4.45;;;2.42;;
20251;SDS011;10284;58.364;15.550;2024-02-14T09:37:04;7.65;;;2.80;;
20251;SDS011;10284;58.364;15.550;2024-02-14T09:39:31;4.97;;;2.63;;
20251;SDS011;10284;58.364;15.550;2024-02-14T09:41:58;9.32;;;2.90;;
20251;SDS011;10284;58.364;15.550;2024-02-14T09:44:30;6.50;;;2.88;;
20251;SDS011;10284;58.364;15.550;2024-02-14T09:46:56;9.13;;;2.80;;
20251;SDS011;10284;58.364;15.550;2024-02-14T09:49:22;10.95;;;3.42;;
20251;SDS011;10284;58.364;15.550;2024-02-14T09:51:48;10.48;;;3.22;;
20251;SDS011;10284;58.364;15.550;2024-02-14T09:54:14;12.10;;;3.17;;
20251;SDS011;10284;58.364;15.550;2024-02-14T09:56:41;9.65;;;3.63;;
20251;SDS011;10284;58.364;15.550;2024-02-14T09:59:07;12.60;;;3.22;;
20251;SDS011;10284;58.364;15.550;2024-02-14T10:01:33;11.18;;;3.38;;
20251;SDS011;10284;58.364;15.550;2024-02-14T10:03:58;8.75;;;3.30;;
20251;SDS011;10284;58.364;15.550;2024-02-14T10:06:24;8.95;;;3.20;;
20251;SDS011;10284;58.364;15.550;2024-02-14T10:08:50;9.18;;;3.10;;
20251;SDS011;10284;58.364;15.550;2024-02-14T10:11:16;6.97;;;3.45;;
20251;SDS011;10284;58.364;15.550;2024-02-14T10:13:45;12.43;;;3.35;;
20251;SDS011;10284;58.364;15.550;2024-02-14T10:16:12;11.50;;;3.30;;
20251;SDS011;10284;58.364;15.550;2024-02-14T10:18:38;8.30;;;3.45;;
20251;SDS011;10284;58.364;15.550;2024-02-14T10:21:04;7.30;;;3.05;;
20251;SDS011;10284;58.364;15.550;2024-02-14T10:23:29;9.63;;;3.00;;
20251;SDS011;10284;58.364;15.550;2024-02-14T10:25:55;8.57;;;3.53;;
20251;SDS011;10284;58.364;15.550;2024-02-14T10:28:21;8.88;;;3.28;;
20251;SDS011;10284;58.364;15.550;2024-02-14T10:30:47;8.45;;;4.20;;
20251;SDS011;10284;58.364;15.550;2024-02-14T10:33:15;10.73;;;3.67;;
20251;SDS011;10284;58.364;15.550;2024-02-14T10:35:40;7.40;;;3.65;;
20251;SDS011;10284;58.364;15.550;2024-02-14T10:38:07;6.53;;;3.60;;
20251;SDS011;10284;58.364;15.550;2024-02-14T10:40:35;5.15;;;3.58;;
20251;SDS011;10284;58.364;15.550;2024-02-14T10:43:01;9.40;;;4.05;;
20251;SDS011;10284;58.364;15.550;2024-02-14T10:45:27;11.63;;;3.65;;
20251;SDS011;10284;58.364;15.550;2024-02-14T10:47:55;9.32;;;4.35;;
20251;SDS011;10284;58.364;15.550;2024-02-14T10:50:22;8.68;;;4.40;;
20251;SDS011;10284;58.364;15.550;2024-02-14T10:52:49;8.82;;;4.25;;
20251;SDS011;10284;58.364;15.550;2024-02-14T10:55:16;13.80;;;4.05;;
20251;SDS011;10284;58.364;15.550;2024-02-14T10:57:45;11.85;;;3.88;;
20251;SDS011;10284;58.364;15.550;2024-02-14T11:00:12;7.85;;;3.70;;
20251;SDS011;10284;58.364;15.550;2024-02-14T11:02:39;9.07;;;4.40;;
20251;SDS011;10284;58.364;15.550;2024-02-14T11:05:11;9.07;;;4.07;;
20251;SDS011;10284;58.364;15.550;2024-02-14T11:07:43;6.97;;;3.58;;
20251;SDS011;10284;58.364;15.550;2024-02-14T11:10:12;10.13;;;4.25;;
20251;SDS011;10284;58.364;15.550;2024-02-14T11:12:39;7.65;;;3.58;;
20251;SDS011;10284;58.364;15.550;2024-02-14T11:15:38;8.43;;;3.63;;
20251;SDS011;10284;58.364;15.550;2024-02-14T11:18:06;7.50;;;3.20;;
20251;SDS011;10284;58.364;15.550;2024-02-14T11:20:35;9.90;;;4.13;;
20251;SDS011;10284;58.364;15.550;2024-02-14T11:23:01;6.00;;;3.45;;
20251;SDS011;10284;58.364;15.550;2024-02-14T11:25:31;12.38;;;3.78;;
20251;SDS011;10284;58.364;15.550;2024-02-14T11:27:59;8.02;;;3.90;;
20251;SDS011;10284;58.364;15.550;2024-02-14T11:30:34;7.15;;;3.88;;
20251;SDS011;10284;58.364;15.550;2024-02-14T11:33:19;7.25;;;3.90;;
20251;SDS011;10284;58.364;15.550;2024-02-14T11:35:46;5.70;;;4.15;;
20251;SDS011;10284;58.364;15.550;2024-02-14T11:38:12;6.45;;;4.00;;
20251;SDS011;10284;58.364;15.550;2024-02-14T11:40:39;6.38;;;4.03;;
20251;SDS011;10284;58.364;15.550;2024-02-14T11:43:10;8.45;;;4.30;;
20251;SDS011;10284;58.364;15.550;2024-02-14T11:45:37;9.88;;;3.67;;
20251;SDS011;10284;58.364;15.550;2024-02-14T11:48:06;6.30;;;3.88;;
20251;SDS011;10284;58.364;15.550;2024-02-14T11:50:36;8.60;;;3.97;;
20251;SDS011;10284;58.364;15.550;2024-02-14T11:53:03;9.85;;;4.78;;
20251;SDS011;10284;58.364;15.550;2024-02-14T11:55:31;9.38;;;4.50;;
20251;SDS011;10284;58.364;15.550;2024-02-14T11:57:57;8.50;;;4.88;;
20251;SDS011;10284;58.364;15.550;2024-02-14T12:00:22;8.00;;;4.75;;
20251;SDS011;10284;58.364;15.550;2024-02-14T12:02:49;9.65;;;4.85;;
20251;SDS011;10284;58.364;15.550;2024-02-14T12:05:16;7.03;;;4.63;;
20251;SDS011;10284;58.364;15.550;2024-02-14T12:07:42;9.00;;;4.50;;
20251;SDS011;10284;58.364;15.550;2024-02-14T12:10:09;9.60;;;4.63;;
20251;SDS011;10284;58.364;15.550;2024-02-14T12:12:34;13.13;;;5.13;;
20251;SDS011;10284;58.364;15.550;2024-02-14T12:15:01;11.32;;;5.32;;
20251;SDS011;10284;58.364;15.550;2024-02-14T12:17:27;11.27;;;4.57;;
20251;SDS011;10284;58.364;15.550;2024-02-14T12:19:52;6.50;;;4.30;;
20251;SDS011;10284;58.364;15.550;2024-02-14T12:22:18;10.07;;;4.32;;
20251;SDS011;10284;58.364;15.550;2024-02-14T12:24:44;8.48;;;3.58;;
20251;SDS011;10284;58.364;15.550;2024-02-14T12:27:10;8.00;;;4.05;;
20251;SDS011;10284;58.364;15.550;2024-02-14T12:29:35;12.65;;;4.50;;
20251;SDS011;10284;58.364;15.550;2024-02-14T12:32:07;7.03;;;3.88;;
20251;SDS011;10284;58.364;15.550;2024-02-14T12:34:33;9.38;;;3.92;;
20251;SDS011;10284;58.364;15.550;2024-02-14T12:36:58;9.93;;;4.20;;
20251;SDS011;10284;58.364;15.550;2024-02-14T12:39:28;11.93;;;3.70;;
20251;SDS011;10284;58.364;15.550;2024-02-14T12:41:54;8.52;;;3.20;;
20251;SDS011;10284;58.364;15.550;2024-02-14T12:44:20;11.38;;;3.50;;
20251;SDS011;10284;58.364;15.550;2024-02-14T12:46:45;6.70;;;3.00;;
20251;SDS011;10284;58.364;15.550;2024-02-14T12:49:10;7.57;;;2.95;;
20251;SDS011;10284;58.364;15.550;2024-02-14T12:51:36;7.72;;;3.28;;
20251;SDS011;10284;58.364;15.550;2024-02-14T12:54:03;12.10;;;3.50;;
20251;SDS011;10284;58.364;15.550;2024-02-14T12:56:29;6.72;;;3.00;;
20251;SDS011;10284;58.364;15.550;2024-02-14T12:58:54;12.60;;;3.55;;
20251;SDS011;10284;58.364;15.550;2024-02-14T13:01:20;7.30;;;2.90;;
20251;SDS011;10284;58.364;15.550;2024-02-14T13:03:45;8.25;;;2.67;;
20251;SDS011;10284;58.364;15.550;2024-02-14T13:06:11;7.32;;;2.90;;
20251;SDS011;10284;58.364;15.550;2024-02-14T13:08:36;6.50;;;2.58;;
20251;SDS011;10284;58.364;15.550;2024-02-14T13:11:04;10.68;;;2.85;;
20251;SDS011;10284;58.364;15.550;2024-02-14T13:13:30;9.25;;;2.40;;
20251;SDS011;10284;58.364;15.550;2024-02-14T13:15:56;6.85;;;2.60;;
20251;SDS011;10284;58.364;15.550;2024-02-14T13:18:21;5.00;;;2.40;;
20251;SDS011;10284;58.364;15.550;2024-02-14T13:20:46;8.45;;;2.70;;
20251;SDS011;10284;58.364;15.550;2024-02-14T13:23:12;6.38;;;2.50;;
20251;SDS011;10284;58.364;15.550;2024-02-14T13:25:39;6.97;;;2.72;;
20251;SDS011;10284;58.364;15.550;2024-02-14T13:28:04;5.78;;;2.30;;
20251;SDS011;10284;58.364;15.550;2024-02-14T13:30:31;4.63;;;1.98;;
20251;SDS011;10284;58.364;15.550;2024-02-14T13:32:56;4.45;;;2.08;;
20251;SDS011;10284;58.364;15.550;2024-02-14T13:35:22;6.57;;;2.20;;
20251;SDS011;10284;58.364;15.550;2024-02-14T13:37:47;3.70;;;2.20;;
20251;SDS011;10284;58.364;15.550;2024-02-14T13:40:13;7.60;;;2.28;;
20251;SDS011;10284;58.364;15.550;2024-02-14T13:42:39;6.38;;;2.20;;
20251;SDS011;10284;58.364;15.550;2024-02-14T13:45:05;5.80;;;2.00;;
20251;SDS011;10284;58.364;15.550;2024-02-14T13:47:37;4.88;;;1.92;;
20251;SDS011;10284;58.364;15.550;2024-02-14T13:50:07;4.88;;;2.17;;
20251;SDS011;10284;58.364;15.550;2024-02-14T13:52:33;3.92;;;2.00;;
20251;SDS011;10284;58.364;15.550;2024-02-14T13:54:59;4.93;;;2.22;;
20251;SDS011;10284;58.364;15.550;2024-02-14T13:57:27;7.45;;;2.20;;
20251;SDS011;10284;58.364;15.550;2024-02-14T13:59:52;5.22;;;2.03;;
20251;SDS011;10284;58.364;15.550;2024-02-14T14:02:19;5.03;;;2.00;;
20251;SDS011;10284;58.364;15.550;2024-02-14T14:04:44;8.05;;;2.63;;
20251;SDS011;10284;58.364;15.550;2024-02-14T14:07:09;4.72;;;2.17;;
20251;SDS011;10284;58.364;15.550;2024-02-14T14:09:35;7.07;;;2.40;;
20251;SDS011;10284;58.364;15.550;2024-02-14T14:12:00;5.40;;;2.55;;
20251;SDS011;10284;58.364;15.550;2024-02-14T14:14:26;6.82;;;2.85;;
20251;SDS011;10284;58.364;15.550;2024-02-14T14:16:52;7.20;;;3.55;;
20251;SDS011;10284;58.364;15.550;2024-02-14T14:19:18;6.43;;;2.97;;